Time;durP1;ratioP1;P1;durP2;ratioP2;P2;SDS_P1;SDS_P2;PMS_P1;PMS_P2;Temp;Humidity;BMP_temperature;BMP_pressure;BME280_temperature;BME280_humidity;BME280_pressure;Samples;Min_cycle;Max_cycle;Signal;HPM_P1;HPM_P2
2021/12/26 00:01:08;;;;;;;1.27;0.55;;;15.60;26.50;;;;;;5138995;27;20141;-65
2021/12/26 00:03:34;;;;;;;1.83;0.55;;;15.90;26.30;;;;;;5138955;27;20053;-65
2021/12/26 00:06:06;;;;;;;1.30;0.50;;;16.20;26.00;;;;;;5138803;27;20046;-65
2021/12/26 00:08:33;;;;;;;0.80;0.28;;;16.60;25.80;;;;;;5138811;27;20386;-65
2021/12/26 00:10:59;;;;;;;0.95;0.30;;;16.90;25.60;;;;;;5138558;27;20050;-65
2021/12/26 00:13:25;;;;;;;1.10;0.47;;;17.20;25.30;;;;;;5138631;27;20151;-66
2021/12/26 00:15:51;;;;;;;0.68;0.30;;;17.50;25.10;;;;;;5138561;27;20239;-65
2021/12/26 00:18:17;;;;;;;1.25;0.30;;;17.70;25.00;;;;;;5138707;27;20042;-65
2021/12/26 00:20:44;;;;;;;0.90;0.20;;;17.90;24.80;;;;;;5138303;27;20050;-65
2021/12/26 00:23:10;;;;;;;1.65;0.40;;;18.10;24.60;;;;;;5138028;27;20050;-66
2021/12/26 00:25:36;;;;;;;0.80;0.30;;;18.10;24.50;;;;;;5138210;27;20078;-65
2021/12/26 00:28:02;;;;;;;0.68;0.30;;;18.10;24.40;;;;;;5156818;27;20069;-65
2021/12/26 00:30:28;;;;;;;1.23;0.30;;;18.10;24.40;;;;;;5156816;27;20046;-66
2021/12/26 00:32:54;;;;;;;0.70;0.20;;;18.00;24.40;;;;;;5138428;27;20099;-65
2021/12/26 00:35:22;;;;;;;1.27;0.30;;;17.90;24.40;;;;;;5137978;27;20489;-65
2021/12/26 00:37:49;;;;;;;0.45;0.30;;;17.80;24.40;;;;;;5156559;27;20038;-65
2021/12/26 00:40:18;;;;;;;1.95;0.30;;;17.60;24.40;;;;;;5137929;27;20118;-65
2021/12/26 00:42:44;;;;;;;0.75;0.22;;;17.50;24.40;;;;;;5137846;27;20045;-65
2021/12/26 00:45:10;;;;;;;0.68;0.20;;;17.40;24.50;;;;;;5156368;27;20039;-65
2021/12/26 00:47:36;;;;;;;0.95;0.20;;;17.20;24.60;;;;;;5137733;27;20095;-65
2021/12/26 00:50:05;;;;;;;0.50;0.20;;;17.10;24.70;;;;;;5156292;27;20035;-65
2021/12/26 00:52:31;;;;;;;0.80;0.30;;;16.90;24.70;;;;;;5156244;27;20081;-65
2021/12/26 00:54:56;;;;;;;0.73;0.22;;;16.80;24.80;;;;;;5155688;27;20062;-65
2021/12/26 00:57:22;;;;;;;0.73;0.30;;;16.60;24.80;;;;;;5137711;27;20478;-65
2021/12/26 00:59:48;;;;;;;1.38;0.43;;;16.40;24.90;;;;;;5137721;27;20045;-65
2021/12/26 01:02:16;;;;;;;1.25;0.35;;;16.30;24.90;;;;;;5156126;27;20045;-65
2021/12/26 01:04:43;;;;;;;1.33;0.20;;;16.20;25.10;;;;;;5137466;27;20072;-66
2021/12/26 01:07:21;;;;;;;1.25;0.40;;;16.00;25.20;;;;;;5155820;27;20030;-66
2021/12/26 01:09:51;;;;;;;0.75;0.20;;;15.80;25.20;;;;;;5137349;27;20470;-65
2021/12/26 01:12:18;;;;;;;1.02;0.30;;;15.60;25.30;;;;;;5137162;27;20038;-65
2021/12/26 01:14:49;;;;;;;1.98;0.40;;;15.50;25.40;;;;;;5155866;27;20402;-66
2021/12/26 01:17:19;;;;;;;0.40;0.20;;;15.30;25.40;;;;;;5137447;27;20049;-65
2021/12/26 01:19:49;;;;;;;1.35;0.30;;;15.20;25.50;;;;;;5137073;27;20053;-65
2021/12/26 01:22:17;;;;;;;1.23;0.40;;;15.00;25.50;;;;;;5136832;27;20053;-66
2021/12/26 01:24:45;;;;;;;1.25;0.20;;;14.90;25.60;;;;;;5136981;27;20125;-66
2021/12/26 01:27:12;;;;;;;0.63;0.20;;;14.80;25.80;;;;;;5155942;27;20034;-65
2021/12/26 01:29:38;;;;;;;1.08;0.30;;;14.80;25.90;;;;;;5137211;27;20046;-65
2021/12/26 01:32:05;;;;;;;1.85;0.30;;;14.80;25.90;;;;;;5155410;27;20038;-65
2021/12/26 01:34:31;;;;;;;1.27;0.20;;;15.00;25.90;;;;;;5155389;27;20402;-66
2021/12/26 01:36:57;;;;;;;0.75;0.40;;;15.10;25.70;;;;;;5155495;27;20038;-66
2021/12/26 01:39:24;;;;;;;1.13;0.30;;;15.40;25.70;;;;;;5155405;27;20037;-65
2021/12/26 01:41:53;;;;;;;1.10;0.10;;;15.60;25.50;;;;;;5136640;27;20042;-66
2021/12/26 01:44:19;;;;;;;0.93;0.20;;;15.90;25.30;;;;;;5136709;27;20039;-65
2021/12/26 01:46:47;;;;;;;0.80;0.43;;;16.20;25.10;;;;;;5136553;27;20042;-65
2021/12/26 01:49:18;;;;;;;0.77;0.25;;;16.60;25.00;;;;;;5137100;27;20117;-65
2021/12/26 01:51:45;;;;;;;1.52;0.32;;;16.80;24.70;;;;;;5136549;27;20046;-65
2021/12/26 01:54:15;;;;;;;0.80;0.40;;;17.20;24.60;;;;;;5155216;27;20034;-66
2021/12/26 01:56:43;;;;;;;0.63;0.20;;;17.40;24.40;;;;;;5136451;27;20474;-66
2021/12/26 01:59:11;;;;;;;0.70;0.20;;;17.70;24.30;;;;;;5154937;27;20066;-65
2021/12/26 02:01:37;;;;;;;0.60;0.20;;;18.00;24.10;;;;;;5136217;27;20485;-65
2021/12/26 02:04:03;;;;;;;0.68;0.20;;;18.20;23.90;;;;;;5136331;27;20039;-66
2021/12/26 02:06:29;;;;;;;1.42;0.20;;;18.30;23.70;;;;;;5135404;27;20121;-65
2021/12/26 02:08:58;;;;;;;0.75;0.30;;;18.40;23.60;;;;;;5136389;27;20030;-65
2021/12/26 02:11:24;;;;;;;0.73;0.40;;;18.40;23.50;;;;;;5136230;27;20047;-66
2021/12/26 02:13:49;;;;;;;0.88;0.20;;;18.40;23.50;;;;;;5154557;27;20046;-65
2021/12/26 02:16:15;;;;;;;0.55;0.22;;;18.40;23.50;;;;;;5135984;27;20092;-65
2021/12/26 02:18:41;;;;;;;0.77;0.40;;;18.40;23.50;;;;;;5154766;27;20035;-65
2021/12/26 02:24:09;;;;;;;0.75;0.20;;;18.10;23.50;;;;;;5135988;27;20043;-65
2021/12/26 02:29:21;;;;;;;1.60;0.22;;;17.80;24.30;;;;;;5135599;27;20077;-65
2021/12/26 02:31:46;;;;;;;1.10;0.32;;;17.60;23.80;;;;;;5136097;27;20076;-65
2021/12/26 02:34:12;;;;;;;1.35;0.40;;;17.40;23.80;;;;;;5154160;27;20438;-65
2021/12/26 02:36:38;;;;;;;1.42;0.38;;;17.30;23.90;;;;;;5154378;27;20079;-65
2021/12/26 02:39:04;;;;;;;0.57;0.20;;;17.10;24.00;;;;;;5154190;27;20284;-65
2021/12/26 02:41:30;;;;;;;1.02;0.30;;;16.90;24.10;;;;;;5154535;27;20049;-65
2021/12/26 02:43:58;;;;;;;0.90;0.30;;;16.70;24.10;;;;;;5154027;27;20038;-65
2021/12/26 02:46:26;;;;;;;1.65;0.28;;;16.60;24.20;;;;;;5135775;27;20043;-65
2021/12/26 02:48:52;;;;;;;0.65;0.30;;;16.40;24.30;;;;;;5154155;27;20390;-66
2021/12/26 02:51:18;;;;;;;1.20;0.28;;;16.20;24.40;;;;;;5154126;27;20424;-66
2021/12/26 02:53:47;;;;;;;0.73;0.30;;;16.10;24.60;;;;;;5135387;27;20056;-65
2021/12/26 02:56:12;;;;;;;0.90;0.20;;;15.90;24.50;;;;;;5135253;27;20045;-65
2021/12/26 02:58:38;;;;;;;0.68;0.30;;;15.80;24.70;;;;;;5154262;27;20043;-65
2021/12/26 03:03:44;;;;;;;0.70;0.20;;;15.50;24.70;;;;;;5152120;27;1350909;-65
2021/12/26 03:06:20;;;;;;;0.50;0.22;;;15.30;24.80;;;;;;5153082;27;20050;-65
2021/12/26 03:08:47;;;;;;;1.13;0.35;;;15.20;24.90;;;;;;5172142;27;20075;-65
2021/12/26 03:11:14;;;;;;;1.10;0.30;;;15.10;25.00;;;;;;5171829;27;20042;-65
2021/12/26 03:13:39;;;;;;;1.83;0.40;;;14.90;25.10;;;;;;5152994;27;20398;-65
2021/12/26 03:16:05;;;;;;;0.77;0.30;;;14.80;25.20;;;;;;5152897;27;20053;-65
2021/12/26 03:18:31;;;;;;;0.57;0.20;;;14.70;25.30;;;;;;5171982;27;20072;-65
2021/12/26 03:20:57;;;;;;;0.90;0.47;;;14.60;25.40;;;;;;5152829;27;20047;-65
2021/12/26 03:23:25;;;;;;;0.80;0.32;;;14.50;25.50;;;;;;5171345;27;20031;-65
2021/12/26 03:25:55;;;;;;;1.63;0.38;;;14.60;25.60;;;;;;5171347;27;20049;-66
2021/12/26 03:28:21;;;;;;;0.55;0.15;;;14.70;25.50;;;;;;5153067;27;20419;-64
2021/12/26 03:30:47;;;;;;;2.03;0.30;;;14.90;25.40;;;;;;5153081;27;20034;-65
2021/12/26 03:33:13;;;;;;;1.38;0.30;;;15.10;25.30;;;;;;5171210;27;20045;-66
2021/12/26 03:35:42;;;;;;;1.08;0.30;;;15.40;25.20;;;;;;5152855;27;20389;-65
2021/12/26 03:38:11;;;;;;;0.70;0.40;;;15.70;25.00;;;;;;5152778;27;20085;-65
2021/12/26 03:40:40;;;;;;;0.93;0.20;;;16.00;24.80;;;;;;5152417;27;20557;-65
2021/12/26 03:43:06;;;;;;;0.50;0.20;;;16.30;24.70;;;;;;5171205;27;20046;-65
2021/12/26 03:45:33;;;;;;;0.82;0.30;;;16.60;24.50;;;;;;5171067;27;20063;-65
2021/12/26 03:47:58;;;;;;;2.13;0.30;;;16.90;24.20;;;;;;5152607;27;20430;-66
2021/12/26 03:50:27;;;;;;;2.30;0.32;;;17.30;24.10;;;;;;5152593;27;20125;-65
2021/12/26 03:52:56;;;;;;;1.05;0.35;;;17.50;23.90;;;;;;5152442;27;20069;-66
2021/12/26 03:55:24;;;;;;;1.38;0.30;;;17.80;23.80;;;;;;5171005;27;20038;-65
2021/12/26 03:57:53;;;;;;;0.55;0.30;;;17.90;23.60;;;;;;5170843;27;20038;-65
2021/12/26 04:00:21;;;;;;;0.45;0.20;;;18.20;23.50;;;;;;5152524;27;20043;-65
2021/12/26 04:02:47;;;;;;;1.20;0.40;;;18.40;23.40;;;;;;5151822;27;20050;-65
2021/12/26 04:05:14;;;;;;;0.70;0.20;;;18.50;23.20;;;;;;5152054;27;20489;-66
2021/12/26 04:07:41;;;;;;;0.65;0.30;;;18.50;23.10;;;;;;5170632;27;20038;-65
2021/12/26 04:10:08;;;;;;;1.42;0.20;;;18.50;23.10;;;;;;5170985;27;20045;-65
2021/12/26 04:12:37;;;;;;;1.35;0.20;;;18.50;23.10;;;;;;5152031;27;20038;-65
2021/12/26 04:15:08;;;;;;;0.73;0.20;;;18.40;23.10;;;;;;5134753;27;20118;-65
2021/12/26 04:17:35;;;;;;;1.15;0.45;;;18.30;23.00;;;;;;5117372;27;20047;-65
2021/12/26 04:20:01;;;;;;;0.50;0.20;;;18.30;23.20;;;;;;5117596;27;20067;-65
2021/12/26 04:22:27;;;;;;;0.68;0.20;;;18.10;23.20;;;;;;5135504;27;20044;-65
2021/12/26 04:24:52;;;;;;;0.82;0.20;;;18.00;23.30;;;;;;5135881;27;20039;-65
2021/12/26 04:27:18;;;;;;;1.13;0.20;;;17.80;23.40;;;;;;5117123;27;20050;-65
2021/12/26 04:29:44;;;;;;;0.88;0.30;;;17.60;23.40;;;;;;5135662;27;20100;-65
2021/12/26 04:32:16;;;;;;;0.68;0.28;;;17.50;23.50;;;;;;5135545;27;20401;-65
2021/12/26 04:34:45;;;;;;;0.88;0.20;;;17.30;23.50;;;;;;5135501;27;20035;-65
2021/12/26 04:37:11;;;;;;;0.68;0.35;;;17.10;23.60;;;;;;5135274;27;20112;-65
2021/12/26 04:39:37;;;;;;;0.57;0.30;;;16.90;23.70;;;;;;5117288;27;20477;-65
2021/12/26 04:42:03;;;;;;;1.48;0.40;;;16.80;23.90;;;;;;5134156;27;20525;-65
2021/12/26 04:44:29;;;;;;;1.00;0.30;;;16.60;24.00;;;;;;5135282;27;20493;-65
2021/12/26 04:46:55;;;;;;;0.85;0.30;;;16.40;24.00;;;;;;5117076;27;20035;-65
2021/12/26 04:49:23;;;;;;;0.57;0.20;;;16.30;24.10;;;;;;5135219;27;20035;-65
2021/12/26 04:51:49;;;;;;;1.45;0.40;;;16.10;24.20;;;;;;5135164;27;20363;-65
2021/12/26 04:54:15;;;;;;;2.00;0.52;;;15.90;24.30;;;;;;5116604;27;20051;-65
2021/12/26 04:56:41;;;;;;;1.02;0.40;;;15.80;24.40;;;;;;5135170;27;20087;-65
2021/12/26 04:59:07;;;;;;;1.95;0.40;;;15.70;24.40;;;;;;5134992;27;20030;-65
2021/12/26 05:01:35;;;;;;;0.60;0.20;;;15.50;24.40;;;;;;5116622;27;20051;-65
2021/12/26 05:04:01;;;;;;;1.42;0.35;;;15.40;24.50;;;;;;5133358;27;20051;-65
2021/12/26 05:06:27;;;;;;;0.68;0.20;;;15.30;24.60;;;;;;5134766;27;20049;-65
2021/12/26 05:08:53;;;;;;;1.00;0.40;;;15.20;24.70;;;;;;5134697;27;20039;-65
2021/12/26 05:11:19;;;;;;;0.73;0.30;;;15.00;24.70;;;;;;5116643;27;20035;-65
2021/12/26 05:13:45;;;;;;;0.90;0.40;;;14.90;24.80;;;;;;5137841;27;20045;-65
2021/12/26 05:16:11;;;;;;;0.93;0.50;;;14.80;24.90;;;;;;5155439;27;20118;-65
2021/12/26 05:18:37;;;;;;;1.30;0.40;;;14.60;25.00;;;;;;5136651;27;20043;-66
2021/12/26 05:21:03;;;;;;;1.00;0.30;;;14.60;25.10;;;;;;5136514;27;20038;-65
2021/12/26 05:23:29;;;;;;;1.00;0.40;;;14.60;25.20;;;;;;5136460;27;20087;-66
2021/12/26 05:25:54;;;;;;;1.23;0.43;;;14.70;25.20;;;;;;5135878;27;20046;-65
2021/12/26 05:28:20;;;;;;;2.33;0.50;;;14.90;25.00;;;;;;5136880;27;20049;-65
2021/12/26 05:30:46;;;;;;;0.80;0.30;;;15.10;24.90;;;;;;5155469;27;20038;-65
2021/12/26 05:33:11;;;;;;;1.02;0.30;;;15.40;24.80;;;;;;5136699;27;20129;-66
2021/12/26 05:35:37;;;;;;;0.80;0.30;;;15.70;24.60;;;;;;5154930;27;20047;-65
2021/12/26 05:38:03;;;;;;;0.93;0.32;;;16.00;24.50;;;;;;5136592;27;20523;-65
2021/12/26 05:40:29;;;;;;;0.77;0.40;;;16.30;24.30;;;;;;5154983;27;20035;-65
2021/12/26 05:42:54;;;;;;;1.67;0.35;;;16.60;24.20;;;;;;5154912;27;20553;-65
2021/12/26 05:45:21;;;;;;;0.70;0.30;;;16.90;23.90;;;;;;5154726;27;20038;-65
2021/12/26 05:47:46;;;;;;;0.65;0.20;;;17.20;23.80;;;;;;5154704;27;20043;-65
2021/12/26 05:50:15;;;;;;;0.98;0.20;;;17.50;23.60;;;;;;5136077;27;20043;-65
2021/12/26 05:52:41;;;;;;;0.68;0.20;;;17.80;23.40;;;;;;5136067;27;20521;-65
2021/12/26 05:55:08;;;;;;;0.85;0.20;;;18.10;23.30;;;;;;5135889;27;20073;-65
2021/12/26 05:57:34;;;;;;;0.85;0.22;;;18.30;23.10;;;;;;5154886;27;20113;-65
2021/12/26 06:00:00;;;;;;;0.57;0.25;;;18.40;23.00;;;;;;5136048;27;20497;-66
2021/12/26 06:02:25;;;;;;;0.70;0.20;;;18.50;22.90;;;;;;5154273;27;20035;-65
2021/12/26 06:04:51;;;;;;;0.82;0.25;;;18.60;22.80;;;;;;5136081;27;20415;-65
2021/12/26 06:07:17;;;;;;;0.90;0.32;;;18.50;22.80;;;;;;5154255;27;20593;-65
2021/12/26 06:09:43;;;;;;;1.20;0.30;;;18.50;22.80;;;;;;5135852;27;20470;-65
2021/12/26 06:12:09;;;;;;;0.73;0.40;;;18.50;22.80;;;;;;5135959;27;20047;-65
2021/12/26 06:14:35;;;;;;;0.60;0.28;;;18.30;22.80;;;;;;5154214;27;20035;-65
2021/12/26 06:17:01;;;;;;;0.70;0.30;;;18.20;22.80;;;;;;5135871;27;20495;-65
2021/12/26 06:19:27;;;;;;;1.25;0.30;;;18.10;22.90;;;;;;5135561;27;20030;-65
2021/12/26 06:21:52;;;;;;;0.80;0.30;;;17.90;22.90;;;;;;5153980;27;20050;-65
2021/12/26 06:24:21;;;;;;;1.23;0.30;;;17.70;23.00;;;;;;5135399;27;20049;-65
2021/12/26 06:26:47;;;;;;;1.00;0.30;;;17.60;23.10;;;;;;5135674;27;20135;-65
2021/12/26 06:29:16;;;;;;;1.02;0.30;;;17.40;23.20;;;;;;5135463;27;20034;-65
2021/12/26 06:31:41;;;;;;;1.20;0.30;;;17.20;23.20;;;;;;5135375;27;20065;-65
2021/12/26 06:34:07;;;;;;;1.63;0.30;;;17.10;23.40;;;;;;5135409;27;20035;-65
2021/12/26 06:36:32;;;;;;;1.15;0.40;;;16.90;23.40;;;;;;5153590;27;20030;-65
2021/12/26 06:38:58;;;;;;;1.23;0.50;;;16.70;23.50;;;;;;5135258;27;20042;-65
2021/12/26 06:41:26;;;;;;;0.80;0.40;;;16.50;23.60;;;;;;5153888;27;20087;-65
2021/12/26 06:43:52;;;;;;;1.42;0.43;;;16.40;23.70;;;;;;5153780;27;20066;-65
2021/12/26 06:46:18;;;;;;;1.48;0.32;;;16.20;23.80;;;;;;5153965;27;20070;-65
2021/12/26 06:48:44;;;;;;;0.90;0.43;;;16.00;23.80;;;;;;5135230;27;20037;-65
2021/12/26 06:51:10;;;;;;;1.25;0.40;;;15.90;23.90;;;;;;5153687;27;20038;-65
2021/12/26 06:53:36;;;;;;;1.67;0.35;;;15.70;24.10;;;;;;5134999;27;20063;-65
2021/12/26 06:56:02;;;;;;;1.00;0.40;;;15.60;24.10;;;;;;5135339;27;20070;-65
2021/12/26 06:58:28;;;;;;;0.80;0.40;;;15.40;24.20;;;;;;5153640;27;20083;-66
2021/12/26 07:00:54;;;;;;;2.50;0.40;;;15.30;24.20;;;;;;5135282;27;20431;-65
2021/12/26 07:03:20;;;;;;;1.33;0.60;;;15.20;24.20;;;;;;5153193;27;20065;-65
2021/12/26 07:05:45;;;;;;;1.13;0.30;;;15.10;24.30;;;;;;5135026;27;20038;-65
2021/12/26 07:08:11;;;;;;;1.45;0.55;;;14.90;24.40;;;;;;5134822;27;20082;-65
2021/12/26 07:10:37;;;;;;;1.55;0.50;;;14.80;24.50;;;;;;5153481;27;20034;-65
2021/12/26 07:13:03;;;;;;;1.05;0.32;;;14.70;24.60;;;;;;5153422;27;20037;-65
2021/12/26 07:15:29;;;;;;;1.42;0.40;;;14.60;24.70;;;;;;5153545;27;20090;-65
2021/12/26 07:17:57;;;;;;;1.85;0.43;;;14.70;24.90;;;;;;5134735;27;20039;-65
2021/12/26 07:20:24;;;;;;;0.73;0.30;;;14.80;24.80;;;;;;5153517;27;20086;-65
2021/12/26 07:22:52;;;;;;;0.88;0.30;;;14.90;24.70;;;;;;5134722;27;20074;-65
2021/12/26 07:25:18;;;;;;;0.50;0.20;;;15.10;24.60;;;;;;5153323;27;20075;-65
2021/12/26 07:27:44;;;;;;;0.60;0.22;;;15.40;24.60;;;;;;5134826;27;20038;-66
2021/12/26 07:30:10;;;;;;;1.27;0.50;;;15.70;24.40;;;;;;5135148;27;20043;-65
2021/12/26 07:32:39;;;;;;;0.60;0.30;;;16.00;24.30;;;;;;5134479;27;20409;-65
2021/12/26 07:35:06;;;;;;;1.13;0.40;;;16.30;24.10;;;;;;5134996;27;20039;-65
2021/12/26 07:37:32;;;;;;;3.08;0.40;;;16.60;23.90;;;;;;5134691;27;20043;-65
2021/12/26 07:39:58;;;;;;;0.80;0.30;;;16.90;23.70;;;;;;5153149;27;20026;-65
2021/12/26 07:42:23;;;;;;;0.77;0.45;;;17.20;23.50;;;;;;5134612;27;20435;-65
2021/12/26 07:44:49;;;;;;;1.02;0.20;;;17.50;23.40;;;;;;5134598;27;20123;-66
2021/12/26 07:47:15;;;;;;;0.90;0.40;;;17.80;23.30;;;;;;5134549;27;20113;-65
2021/12/26 07:49:43;;;;;;;0.85;0.30;;;18.10;23.20;;;;;;5155577;27;20039;-65
2021/12/26 07:52:14;;;;;;;0.80;0.20;;;18.20;23.00;;;;;;5139023;27;20042;-65
2021/12/26 07:54:40;;;;;;;1.13;0.30;;;18.40;22.90;;;;;;5138577;27;20039;-65
2021/12/26 07:57:06;;;;;;;0.95;0.40;;;18.40;22.80;;;;;;5157168;27;20053;-65
2021/12/26 07:59:33;;;;;;;1.70;0.30;;;18.50;22.80;;;;;;5138242;27;20045;-65
2021/12/26 08:01:59;;;;;;;1.00;0.20;;;18.50;22.80;;;;;;5156809;27;20082;-65
2021/12/26 08:04:25;;;;;;;2.58;0.60;;;18.40;22.70;;;;;;5138093;27;20046;-65
2021/12/26 08:06:52;;;;;;;1.02;0.40;;;18.30;22.70;;;;;;5156797;27;20027;-65
2021/12/26 08:09:19;;;;;;;1.23;0.40;;;18.20;22.80;;;;;;5156605;27;20496;-64
2021/12/26 08:11:44;;;;;;;0.88;0.40;;;18.10;22.80;;;;;;5121240;27;20049;-65
2021/12/26 08:14:10;;;;;;;0.70;0.30;;;18.00;22.90;;;;;;5134756;27;20382;-65
2021/12/26 08:16:36;;;;;;;1.00;0.45;;;17.90;23.00;;;;;;5117709;27;20035;-65
2021/12/26 08:19:02;;;;;;;1.30;0.30;;;17.70;23.00;;;;;;5117567;27;20385;-65
2021/12/26 08:21:28;;;;;;;1.30;0.40;;;17.60;23.10;;;;;;5117523;27;20047;-66
2021/12/26 08:23:57;;;;;;;1.45;0.30;;;17.40;23.20;;;;;;5135637;27;20054;-66
2021/12/26 08:26:23;;;;;;;1.13;0.32;;;17.30;23.30;;;;;;5117226;27;20041;-65
2021/12/26 08:28:48;;;;;;;1.50;0.50;;;17.10;23.30;;;;;;5135739;27;20110;-65
2021/12/26 08:31:16;;;;;;;1.33;0.30;;;16.90;23.40;;;;;;5135595;27;20083;-65
2021/12/26 08:33:42;;;;;;;0.57;0.25;;;16.80;23.50;;;;;;5117130;27;20050;-65
2021/12/26 08:36:07;;;;;;;0.90;0.43;;;16.60;23.50;;;;;;5135409;27;20043;-65
2021/12/26 08:38:33;;;;;;;0.82;0.30;;;16.40;23.60;;;;;;5135297;27;20031;-65
2021/12/26 08:41:00;;;;;;;0.98;0.40;;;16.30;23.70;;;;;;5117147;27;20047;-65
2021/12/26 08:43:26;;;;;;;1.30;0.75;;;16.10;23.80;;;;;;5135504;27;20047;-65
2021/12/26 08:45:52;;;;;;;1.35;0.40;;;16.00;23.90;;;;;;5135314;27;20031;-65
2021/12/26 08:48:18;;;;;;;1.30;0.60;;;15.90;24.00;;;;;;5135666;27;20078;-65
2021/12/26 08:50:47;;;;;;;1.08;0.30;;;15.70;24.00;;;;;;5116658;27;20043;-65
2021/12/26 08:53:13;;;;;;;2.10;0.60;;;15.50;24.10;;;;;;5135061;27;20039;-66
2021/12/26 08:55:39;;;;;;;1.20;0.50;;;15.40;24.30;;;;;;5135006;27;20156;-65
2021/12/26 08:58:06;;;;;;;1.65;0.47;;;15.30;24.20;;;;;;5134411;27;20434;-65
2021/12/26 09:00:33;;;;;;;1.05;0.40;;;15.10;24.30;;;;;;5116351;27;20039;-65
2021/12/26 09:02:59;;;;;;;1.60;0.57;;;15.00;24.50;;;;;;5116119;27;20384;-65
2021/12/26 09:05:25;;;;;;;1.00;0.45;;;14.90;24.50;;;;;;5134935;27;20050;-65
2021/12/26 09:07:51;;;;;;;1.65;0.40;;;14.80;24.70;;;;;;5133638;27;20035;-65
2021/12/26 09:10:17;;;;;;;1.13;0.40;;;14.80;24.80;;;;;;5116329;27;20491;-64
2021/12/26 09:12:46;;;;;;;2.28;0.70;;;14.80;24.80;;;;;;5134919;27;20050;-65
2021/12/26 09:15:13;;;;;;;1.98;0.52;;;15.00;24.90;;;;;;5131651;27;20103;-65
2021/12/26 09:17:40;;;;;;;1.98;0.40;;;15.10;24.70;;;;;;5136778;27;20058;-65
2021/12/26 09:20:07;;;;;;;1.35;0.40;;;15.40;24.60;;;;;;5155308;27;20110;-65
2021/12/26 09:22:33;;;;;;;1.83;0.40;;;15.60;24.40;;;;;;5155099;27;20394;-66
2021/12/26 09:24:59;;;;;;;0.75;0.40;;;15.90;24.30;;;;;;5155292;27;20074;-65
2021/12/26 09:27:25;;;;;;;2.92;0.40;;;16.20;24.20;;;;;;5136631;27;20062;-65
2021/12/26 09:29:50;;;;;;;1.30;0.45;;;16.50;24.00;;;;;;5136478;27;20038;-65
2021/12/26 09:32:16;;;;;;;0.75;0.30;;;16.80;23.80;;;;;;5155126;27;20081;-65
2021/12/26 09:34:42;;;;;;;1.35;0.38;;;17.10;23.60;;;;;;5136677;27;20038;-66
2021/12/26 09:37:09;;;;;;;0.75;0.30;;;17.40;23.40;;;;;;5154997;27;20042;-65
2021/12/26 09:39:37;;;;;;;1.60;0.40;;;17.80;23.30;;;;;;5136351;27;20510;-66
2021/12/26 09:42:03;;;;;;;0.90;0.40;;;18.00;23.10;;;;;;5136449;27;20034;-65
2021/12/26 09:44:29;;;;;;;0.98;0.30;;;18.20;23.00;;;;;;5155015;27;20425;-65
2021/12/26 09:46:54;;;;;;;2.15;0.50;;;18.50;22.90;;;;;;5154865;27;20322;-65
2021/12/26 09:49:21;;;;;;;0.80;0.50;;;18.70;22.80;;;;;;5154785;27;20496;-65
2021/12/26 09:51:49;;;;;;;1.10;0.60;;;18.90;22.70;;;;;;5136394;27;20474;-66
2021/12/26 09:54:17;;;;;;;1.02;0.30;;;19.00;22.60;;;;;;5136062;27;20046;-65
2021/12/26 09:56:42;;;;;;;1.15;0.47;;;19.00;22.50;;;;;;5136356;27;20042;-65
2021/12/26 09:59:17;;;;;;;1.00;0.40;;;19.00;22.50;;;;;;5135904;27;20553;-65
2021/12/26 10:01:46;;;;;;;2.00;0.30;;;19.00;22.40;;;;;;5154555;27;20049;-65
2021/12/26 10:04:30;;;;;;;1.23;0.38;;;19.00;22.50;;;;;;5154184;27;20439;-66
2021/12/26 10:07:02;;;;;;;0.90;0.50;;;18.90;22.40;;;;;;5135675;27;20050;-65
2021/12/26 10:09:28;;;;;;;1.30;0.60;;;18.70;22.50;;;;;;5154257;27;20375;-65
2021/12/26 10:11:59;;;;;;;1.67;0.50;;;18.60;22.60;;;;;;5135569;27;20125;-66
2021/12/26 10:14:31;;;;;;;1.80;0.68;;;18.50;22.70;;;;;;5132427;27;20429;-65
2021/12/26 10:19:45;;;;;;;1.67;0.45;;;18.30;22.80;;;;;;5150440;27;1227161;-66
2021/12/26 10:22:13;;;;;;;1.10;0.50;;;18.10;22.90;;;;;;5172038;27;20470;-65
2021/12/26 10:24:42;;;;;;;1.40;0.47;;;17.80;22.90;;;;;;5153306;27;20125;-65
2021/12/26 10:27:11;;;;;;;1.90;0.68;;;17.60;23.10;;;;;;5153052;27;20523;-65
2021/12/26 10:32:36;;;;;;;1.80;0.47;;;17.50;23.20;;;;;;5109789;27;20300;-65
2021/12/26 10:37:48;;;;;;;1.90;0.40;;;16.90;23.70;;;;;;5152343;27;1177948;-65
2021/12/26 10:40:18;;;;;;;1.63;0.50;;;16.80;23.80;;;;;;5153050;27;20777;-65
2021/12/26 10:42:48;;;;;;;1.40;0.77;;;16.50;23.80;;;;;;5153035;27;20051;-65
2021/12/26 10:45:16;;;;;;;1.42;0.65;;;16.40;23.90;;;;;;5153239;27;20128;-65
2021/12/26 10:47:53;;;;;;;1.00;0.50;;;16.30;24.00;;;;;;5153314;27;20043;-65
2021/12/26 10:50:21;;;;;;;1.02;0.45;;;16.10;24.10;;;;;;5153119;27;20094;-65
2021/12/26 10:58:14;;;;;;;1.73;0.60;;;15.70;24.40;;;;;;5049051;27;4064215;-65
2021/12/26 11:03:25;;;;;;;2.65;0.88;;;15.50;24.50;;;;;;5130311;27;20383;-66
2021/12/26 11:05:54;;;;;;;1.17;0.60;;;15.30;24.70;;;;;;5128981;28;20043;-65
2021/12/26 11:08:38;;;;;;;2.08;0.75;;;15.20;24.80;;;;;;5129269;28;20390;-65
2021/12/26 11:11:16;;;;;;;1.02;0.55;;;15.20;25.00;;;;;;5128883;28;20054;-65
2021/12/26 11:13:46;;;;;;;2.58;0.75;;;15.20;25.00;;;;;;5129088;28;20119;-65
2021/12/26 11:16:13;;;;;;;2.33;0.52;;;15.40;24.90;;;;;;5128983;28;20074;-65
2021/12/26 11:18:43;;;;;;;1.45;0.40;;;15.60;24.80;;;;;;5129057;28;20051;-65
2021/12/26 11:21:13;;;;;;;2.78;0.80;;;15.80;24.70;;;;;;5130033;27;20035;-65
2021/12/26 11:23:41;;;;;;;0.97;0.47;;;16.10;24.60;;;;;;5130113;27;20092;-65
2021/12/26 11:26:13;;;;;;;1.05;0.50;;;16.40;24.40;;;;;;5128866;28;20684;-65
2021/12/26 11:28:42;;;;;;;1.17;0.75;;;16.70;24.30;;;;;;5128495;28;20032;-65
2021/12/26 11:31:11;;;;;;;1.88;0.63;;;17.00;24.00;;;;;;5128666;28;20055;-65
2021/12/26 11:33:37;;;;;;;1.77;0.70;;;17.30;23.90;;;;;;5129809;27;20057;-65
2021/12/26 11:36:06;;;;;;;1.08;0.50;;;17.60;23.80;;;;;;5129650;27;20522;-65
2021/12/26 11:38:33;;;;;;;0.88;0.45;;;17.90;23.60;;;;;;5130061;27;20032;-65
2021/12/26 11:41:03;;;;;;;0.93;0.30;;;18.20;23.50;;;;;;5128476;28;20031;-65
2021/12/26 11:46:58;;;;;;;1.35;0.63;;;18.40;23.30;;;;;;5109586;27;20299;-65
2021/12/26 11:52:32;;;;;;;1.30;0.60;;;19.00;23.10;;;;;;5130350;27;20379;-65
2021/12/26 12:00:34;;;;;;;1.15;0.50;;;19.10;22.90;;;;;;5130308;27;20433;-65
2021/12/26 12:03:04;;;;;;;1.35;0.50;;;18.90;23.00;;;;;;5130223;27;20084;-65
2021/12/26 12:05:46;;;;;;;2.03;0.60;;;18.80;23.00;;;;;;5128976;28;20035;-65
2021/12/26 12:08:17;;;;;;;1.13;0.68;;;18.70;23.10;;;;;;5128730;28;20490;-65
2021/12/26 12:11:01;;;;;;;1.67;0.50;;;18.60;23.20;;;;;;5129064;27;20113;-66
2021/12/26 12:16:07;;;;;;;1.52;0.40;;;18.50;23.20;;;;;;5155274;27;1153006;-65
2021/12/26 12:26:59;;;;;;;1.63;0.85;;;18.00;23.60;;;;;;5089379;28;20393;-65
2021/12/26 12:37:50;;;;;;;1.77;0.60;;;17.50;23.80;;;;;;5152963;27;1158383;-65
2021/12/26 12:40:28;;;;;;;1.67;0.80;;;16.80;24.40;;;;;;5153008;27;20129;-65
2021/12/26 12:48:41;;;;;;;2.40;0.80;;;16.30;24.70;;;;;;5089345;27;20360;-65
2021/12/26 12:57:01;;;;;;;1.73;0.90;;;15.90;25.10;;;;;;5130318;27;20403;-65
2021/12/26 12:59:30;;;;;;;2.40;0.90;;;15.80;25.20;;;;;;5128981;28;20122;-65
2021/12/26 13:02:04;;;;;;;1.35;0.65;;;15.70;25.30;;;;;;5129258;28;20039;-65
2021/12/26 13:04:50;;;;;;;1.55;0.80;;;15.60;25.50;;;;;;5129224;28;20128;-65
2021/12/26 13:09:57;;;;;;;1.33;0.70;;;15.50;25.60;;;;;;5153090;27;1156271;-65
2021/12/26 13:12:24;;;;;;;1.58;0.80;;;15.40;25.80;;;;;;5153348;27;20050;-65
2021/12/26 13:14:56;;;;;;;1.58;0.60;;;15.40;25.80;;;;;;5152859;27;20034;-65
2021/12/26 13:25:31;;;;;;;2.28;0.60;;;15.60;25.80;;;;;;5154895;27;1159983;-65
2021/12/26 13:28:03;;;;;;;1.38;0.60;;;16.60;25.30;;;;;;5153126;27;20477;-65
2021/12/26 13:30:31;;;;;;;1.27;0.90;;;16.90;25.00;;;;;;5153040;27;20542;-65
2021/12/26 13:32:57;;;;;;;1.08;0.40;;;17.30;24.90;;;;;;5153251;27;20410;-65
2021/12/26 13:35:32;;;;;;;1.52;0.70;;;17.60;24.70;;;;;;5153169;27;20042;-65
2021/12/26 13:37:58;;;;;;;1.30;0.80;;;18.00;24.60;;;;;;5171594;27;20066;-65
2021/12/26 13:40:24;;;;;;;1.55;0.52;;;18.30;24.30;;;;;;5171555;27;20038;-65
2021/12/26 13:42:51;;;;;;;1.67;0.60;;;18.60;24.20;;;;;;5171497;27;20434;-65
2021/12/26 13:45:29;;;;;;;1.52;0.60;;;18.80;24.00;;;;;;5152667;27;20042;-65
2021/12/26 13:47:55;;;;;;;1.92;0.60;;;19.10;24.50;;;;;;5171480;27;20038;-66
2021/12/26 13:50:20;;;;;;;1.95;0.70;;;19.20;23.80;;;;;;5171334;27;20469;-65
2021/12/26 13:53:02;;;;;;;0.82;0.50;;;19.30;23.70;;;;;;5171361;27;20045;-65
2021/12/26 13:55:33;;;;;;;1.35;0.60;;;19.40;23.60;;;;;;5152622;27;20042;-65
2021/12/26 13:58:00;;;;;;;1.33;0.73;;;19.40;23.60;;;;;;5171289;27;20053;-65
2021/12/26 14:00:26;;;;;;;1.20;0.57;;;19.30;23.60;;;;;;5152363;27;20043;-66
2021/12/26 14:02:52;;;;;;;1.45;0.65;;;19.30;23.70;;;;;;5171119;27;20090;-65
2021/12/26 14:05:20;;;;;;;2.03;0.80;;;19.20;23.70;;;;;;5171163;27;20485;-65